sensor_id;sensor_type;location;lat;lon;timestamp;P1;durP1;ratioP1;P2;durP2;ratioP2
53835;SDS011;39737;43.334;21.936;2023-05-28T00:00:37;11.20;;;5.38;;
53835;SDS011;39737;43.334;21.936;2023-05-28T00:03:42;11.02;;;6.72;;
53835;SDS011;39737;43.334;21.936;2023-05-28T00:06:29;12.02;;;6.55;;
53835;SDS011;39737;43.334;21.936;2023-05-28T00:09:15;14.70;;;7.53;;
53835;SDS011;39737;43.334;21.936;2023-05-28T00:12:01;12.25;;;6.28;;
53835;SDS011;39737;43.334;21.936;2023-05-28T00:14:47;10.95;;;6.32;;
53835;SDS011;39737;43.334;21.936;2023-05-28T00:17:33;13.98;;;7.22;;
53835;SDS011;39737;43.334;21.936;2023-05-28T00:20:20;13.65;;;6.65;;
53835;SDS011;39737;43.334;21.936;2023-05-28T00:23:25;11.35;;;6.55;;
53835;SDS011;39737;43.334;21.936;2023-05-28T00:26:11;15.25;;;6.45;;
53835;SDS011;39737;43.334;21.936;2023-05-28T00:28:58;13.80;;;6.50;;
53835;SDS011;39737;43.334;21.936;2023-05-28T00:31:44;13.23;;;5.97;;
53835;SDS011;39737;43.334;21.936;2023-05-28T00:34:31;17.33;;;9.45;;
53835;SDS011;39737;43.334;21.936;2023-05-28T00:37:17;10.48;;;6.63;;
53835;SDS011;39737;43.334;21.936;2023-05-28T00:40:06;11.27;;;7.05;;
53835;SDS011;39737;43.334;21.936;2023-05-28T00:42:54;12.57;;;7.25;;
53835;SDS011;39737;43.334;21.936;2023-05-28T00:45:40;13.77;;;7.40;;
53835;SDS011;39737;43.334;21.936;2023-05-28T00:48:26;18.10;;;8.45;;
53835;SDS011;39737;43.334;21.936;2023-05-28T00:51:12;15.90;;;7.18;;
53835;SDS011;39737;43.334;21.936;2023-05-28T00:53:58;17.15;;;8.88;;
53835;SDS011;39737;43.334;21.936;2023-05-28T00:56:44;23.00;;;8.15;;
53835;SDS011;39737;43.334;21.936;2023-05-28T00:59:32;15.55;;;7.93;;
53835;SDS011;39737;43.334;21.936;2023-05-28T01:02:22;18.08;;;8.20;;
53835;SDS011;39737;43.334;21.936;2023-05-28T01:05:08;13.75;;;8.35;;
53835;SDS011;39737;43.334;21.936;2023-05-28T01:07:55;15.27;;;6.88;;
53835;SDS011;39737;43.334;21.936;2023-05-28T01:10:42;11.27;;;6.60;;
53835;SDS011;39737;43.334;21.936;2023-05-28T01:13:28;14.10;;;6.90;;
53835;SDS011;39737;43.334;21.936;2023-05-28T01:16:15;9.50;;;6.45;;
53835;SDS011;39737;43.334;21.936;2023-05-28T01:19:02;12.90;;;6.70;;
53835;SDS011;39737;43.334;21.936;2023-05-28T01:21:56;9.57;;;5.65;;
53835;SDS011;39737;43.334;21.936;2023-05-28T01:24:44;11.15;;;6.88;;
53835;SDS011;39737;43.334;21.936;2023-05-28T01:27:30;10.10;;;5.70;;
53835;SDS011;39737;43.334;21.936;2023-05-28T01:30:17;12.13;;;7.20;;
53835;SDS011;39737;43.334;21.936;2023-05-28T01:33:03;13.90;;;7.55;;
53835;SDS011;39737;43.334;21.936;2023-05-28T01:35:50;11.27;;;7.00;;
53835;SDS011;39737;43.334;21.936;2023-05-28T01:38:38;13.05;;;6.50;;
53835;SDS011;39737;43.334;21.936;2023-05-28T01:41:25;11.82;;;6.45;;
53835;SDS011;39737;43.334;21.936;2023-05-28T01:44:13;8.30;;;5.63;;
53835;SDS011;39737;43.334;21.936;2023-05-28T01:46:59;9.25;;;6.18;;
53835;SDS011;39737;43.334;21.936;2023-05-28T01:49:46;10.55;;;6.03;;
53835;SDS011;39737;43.334;21.936;2023-05-28T01:52:32;13.32;;;7.25;;
53835;SDS011;39737;43.334;21.936;2023-05-28T01:55:18;12.52;;;6.95;;
53835;SDS011;39737;43.334;21.936;2023-05-28T01:58:07;12.60;;;6.72;;
53835;SDS011;39737;43.334;21.936;2023-05-28T02:00:59;10.35;;;6.10;;
53835;SDS011;39737;43.334;21.936;2023-05-28T02:03:48;11.32;;;5.50;;
53835;SDS011;39737;43.334;21.936;2023-05-28T02:06:34;10.23;;;6.22;;
53835;SDS011;39737;43.334;21.936;2023-05-28T02:09:20;9.35;;;5.68;;
53835;SDS011;39737;43.334;21.936;2023-05-28T02:12:07;10.27;;;5.97;;
53835;SDS011;39737;43.334;21.936;2023-05-28T02:14:53;14.55;;;6.75;;
53835;SDS011;39737;43.334;21.936;2023-05-28T02:17:39;13.95;;;6.53;;
53835;SDS011;39737;43.334;21.936;2023-05-28T02:20:27;9.13;;;5.47;;
53835;SDS011;39737;43.334;21.936;2023-05-28T02:23:13;11.02;;;6.20;;
53835;SDS011;39737;43.334;21.936;2023-05-28T02:26:00;12.85;;;7.40;;
53835;SDS011;39737;43.334;21.936;2023-05-28T02:28:46;14.95;;;6.95;;
53835;SDS011;39737;43.334;21.936;2023-05-28T02:31:32;13.27;;;7.88;;
53835;SDS011;39737;43.334;21.936;2023-05-28T02:34:19;11.35;;;6.68;;
53835;SDS011;39737;43.334;21.936;2023-05-28T02:37:05;11.93;;;6.53;;
53835;SDS011;39737;43.334;21.936;2023-05-28T02:39:51;11.68;;;7.28;;
53835;SDS011;39737;43.334;21.936;2023-05-28T02:42:37;11.93;;;6.05;;
53835;SDS011;39737;43.334;21.936;2023-05-28T02:45:23;11.77;;;6.47;;
53835;SDS011;39737;43.334;21.936;2023-05-28T02:48:10;9.85;;;6.35;;
53835;SDS011;39737;43.334;21.936;2023-05-28T02:50:56;10.15;;;6.28;;
53835;SDS011;39737;43.334;21.936;2023-05-28T02:54:03;14.95;;;7.38;;
53835;SDS011;39737;43.334;21.936;2023-05-28T02:56:49;10.18;;;6.28;;
53835;SDS011;39737;43.334;21.936;2023-05-28T02:59:40;16.35;;;8.52;;
53835;SDS011;39737;43.334;21.936;2023-05-28T03:02:26;12.23;;;8.13;;
53835;SDS011;39737;43.334;21.936;2023-05-28T03:05:12;13.68;;;7.78;;
53835;SDS011;39737;43.334;21.936;2023-05-28T03:07:59;10.70;;;6.85;;
53835;SDS011;39737;43.334;21.936;2023-05-28T03:10:45;15.20;;;8.63;;
53835;SDS011;39737;43.334;21.936;2023-05-28T03:13:32;19.65;;;9.90;;
53835;SDS011;39737;43.334;21.936;2023-05-28T03:16:18;20.38;;;11.60;;
53835;SDS011;39737;43.334;21.936;2023-05-28T03:19:04;21.58;;;11.23;;
53835;SDS011;39737;43.334;21.936;2023-05-28T03:21:52;25.35;;;12.25;;
53835;SDS011;39737;43.334;21.936;2023-05-28T03:24:40;23.27;;;11.70;;
53835;SDS011;39737;43.334;21.936;2023-05-28T03:27:29;21.35;;;11.45;;
53835;SDS011;39737;43.334;21.936;2023-05-28T03:30:16;24.70;;;12.18;;
53835;SDS011;39737;43.334;21.936;2023-05-28T03:33:06;22.23;;;11.50;;
53835;SDS011;39737;43.334;21.936;2023-05-28T03:35:52;23.25;;;12.80;;
53835;SDS011;39737;43.334;21.936;2023-05-28T03:38:39;27.20;;;12.48;;
53835;SDS011;39737;43.334;21.936;2023-05-28T03:41:25;18.25;;;11.35;;
53835;SDS011;39737;43.334;21.936;2023-05-28T03:44:15;24.67;;;12.07;;
53835;SDS011;39737;43.334;21.936;2023-05-28T03:47:06;23.35;;;10.00;;
53835;SDS011;39737;43.334;21.936;2023-05-28T03:49:52;22.77;;;12.10;;
53835;SDS011;39737;43.334;21.936;2023-05-28T03:52:39;20.60;;;11.43;;
53835;SDS011;39737;43.334;21.936;2023-05-28T03:55:26;22.27;;;11.65;;
53835;SDS011;39737;43.334;21.936;2023-05-28T03:58:13;21.98;;;11.38;;
53835;SDS011;39737;43.334;21.936;2023-05-28T04:01:01;20.83;;;9.88;;
53835;SDS011;39737;43.334;21.936;2023-05-28T04:03:49;18.85;;;10.93;;
53835;SDS011;39737;43.334;21.936;2023-05-28T04:06:35;18.75;;;9.68;;
53835;SDS011;39737;43.334;21.936;2023-05-28T04:09:22;19.45;;;9.90;;
53835;SDS011;39737;43.334;21.936;2023-05-28T04:12:08;19.73;;;10.23;;
53835;SDS011;39737;43.334;21.936;2023-05-28T04:14:55;18.10;;;8.52;;
53835;SDS011;39737;43.334;21.936;2023-05-28T04:17:42;16.77;;;9.60;;
53835;SDS011;39737;43.334;21.936;2023-05-28T04:20:29;17.95;;;9.95;;
53835;SDS011;39737;43.334;21.936;2023-05-28T04:23:16;16.00;;;9.13;;
53835;SDS011;39737;43.334;21.936;2023-05-28T04:26:02;14.20;;;7.93;;
53835;SDS011;39737;43.334;21.936;2023-05-28T04:28:51;18.40;;;8.50;;
53835;SDS011;39737;43.334;21.936;2023-05-28T04:31:38;21.58;;;9.35;;
53835;SDS011;39737;43.334;21.936;2023-05-28T04:34:26;16.02;;;8.50;;
53835;SDS011;39737;43.334;21.936;2023-05-28T04:37:13;14.00;;;8.35;;
53835;SDS011;39737;43.334;21.936;2023-05-28T04:39:59;13.07;;;7.95;;
53835;SDS011;39737;43.334;21.936;2023-05-28T04:42:46;17.30;;;8.70;;
53835;SDS011;39737;43.334;21.936;2023-05-28T04:45:33;15.48;;;9.10;;
53835;SDS011;39737;43.334;21.936;2023-05-28T04:48:20;19.33;;;9.23;;
53835;SDS011;39737;43.334;21.936;2023-05-28T04:51:06;17.63;;;10.07;;
53835;SDS011;39737;43.334;21.936;2023-05-28T04:53:52;20.63;;;10.55;;
53835;SDS011;39737;43.334;21.936;2023-05-28T04:56:39;21.05;;;11.00;;
53835;SDS011;39737;43.334;21.936;2023-05-28T04:59:25;16.42;;;10.40;;
53835;SDS011;39737;43.334;21.936;2023-05-28T05:02:11;15.15;;;9.07;;
53835;SDS011;39737;43.334;21.936;2023-05-28T05:04:59;17.13;;;9.18;;
53835;SDS011;39737;43.334;21.936;2023-05-28T05:07:46;15.88;;;10.02;;
53835;SDS011;39737;43.334;21.936;2023-05-28T05:10:32;16.73;;;9.13;;
53835;SDS011;39737;43.334;21.936;2023-05-28T05:13:18;17.30;;;9.18;;
53835;SDS011;39737;43.334;21.936;2023-05-28T05:16:04;20.10;;;9.88;;
53835;SDS011;39737;43.334;21.936;2023-05-28T05:18:50;15.13;;;8.93;;
53835;SDS011;39737;43.334;21.936;2023-05-28T05:21:37;15.15;;;8.73;;
53835;SDS011;39737;43.334;21.936;2023-05-28T05:24:23;16.23;;;9.57;;
53835;SDS011;39737;43.334;21.936;2023-05-28T05:27:09;12.90;;;8.80;;
53835;SDS011;39737;43.334;21.936;2023-05-28T05:29:55;18.52;;;10.00;;
53835;SDS011;39737;43.334;21.936;2023-05-28T05:32:41;14.93;;;9.55;;
53835;SDS011;39737;43.334;21.936;2023-05-28T05:35:27;18.88;;;9.95;;
53835;SDS011;39737;43.334;21.936;2023-05-28T05:38:36;16.88;;;9.50;;
53835;SDS011;39737;43.334;21.936;2023-05-28T05:44:37;22.88;;;11.00;;
53835;SDS011;39737;43.334;21.936;2023-05-28T05:47:23;20.02;;;11.27;;
53835;SDS011;39737;43.334;21.936;2023-05-28T05:50:11;22.98;;;10.80;;
53835;SDS011;39737;43.334;21.936;2023-05-28T05:53:00;16.65;;;9.10;;
53835;SDS011;39737;43.334;21.936;2023-05-28T05:55:47;15.13;;;9.15;;
53835;SDS011;39737;43.334;21.936;2023-05-28T05:58:34;18.17;;;9.80;;
53835;SDS011;39737;43.334;21.936;2023-05-28T06:01:20;21.20;;;10.45;;
53835;SDS011;39737;43.334;21.936;2023-05-28T06:04:07;16.45;;;9.55;;
53835;SDS011;39737;43.334;21.936;2023-05-28T06:07:25;21.95;;;11.18;;
53835;SDS011;39737;43.334;21.936;2023-05-28T06:10:31;17.52;;;9.98;;
53835;SDS011;39737;43.334;21.936;2023-05-28T06:13:18;20.85;;;11.15;;
53835;SDS011;39737;43.334;21.936;2023-05-28T06:16:04;18.50;;;10.65;;
53835;SDS011;39737;43.334;21.936;2023-05-28T06:18:50;22.42;;;10.48;;
53835;SDS011;39737;43.334;21.936;2023-05-28T06:21:37;17.23;;;9.93;;
53835;SDS011;39737;43.334;21.936;2023-05-28T06:24:25;17.67;;;9.05;;
53835;SDS011;39737;43.334;21.936;2023-05-28T06:27:12;20.58;;;10.98;;
53835;SDS011;39737;43.334;21.936;2023-05-28T06:29:59;18.63;;;10.10;;
53835;SDS011;39737;43.334;21.936;2023-05-28T06:32:46;16.80;;;9.48;;
53835;SDS011;39737;43.334;21.936;2023-05-28T06:35:32;21.95;;;8.93;;
53835;SDS011;39737;43.334;21.936;2023-05-28T06:38:19;20.60;;;9.27;;
53835;SDS011;39737;43.334;21.936;2023-05-28T06:41:05;19.23;;;9.95;;
53835;SDS011;39737;43.334;21.936;2023-05-28T06:44:00;18.55;;;9.75;;
53835;SDS011;39737;43.334;21.936;2023-05-28T06:47:03;15.90;;;8.13;;
53835;SDS011;39737;43.334;21.936;2023-05-28T06:49:50;13.25;;;7.88;;
53835;SDS011;39737;43.334;21.936;2023-05-28T06:52:36;21.75;;;9.60;;
53835;SDS011;39737;43.334;21.936;2023-05-28T06:59:00;13.43;;;7.72;;
53835;SDS011;39737;43.334;21.936;2023-05-28T07:01:58;14.10;;;7.82;;
53835;SDS011;39737;43.334;21.936;2023-05-28T07:05:05;12.75;;;7.63;;
53835;SDS011;39737;43.334;21.936;2023-05-28T07:07:55;13.93;;;6.95;;
53835;SDS011;39737;43.334;21.936;2023-05-28T07:10:46;14.43;;;7.82;;
53835;SDS011;39737;43.334;21.936;2023-05-28T07:13:32;12.23;;;6.60;;
53835;SDS011;39737;43.334;21.936;2023-05-28T07:16:19;14.95;;;7.22;;
53835;SDS011;39737;43.334;21.936;2023-05-28T07:19:05;12.77;;;7.97;;
53835;SDS011;39737;43.334;21.936;2023-05-28T07:21:53;15.93;;;8.07;;
53835;SDS011;39737;43.334;21.936;2023-05-28T07:24:40;13.63;;;6.70;;
53835;SDS011;39737;43.334;21.936;2023-05-28T07:27:26;13.75;;;8.35;;
53835;SDS011;39737;43.334;21.936;2023-05-28T07:30:12;10.80;;;7.40;;
53835;SDS011;39737;43.334;21.936;2023-05-28T07:32:59;15.25;;;7.32;;
53835;SDS011;39737;43.334;21.936;2023-05-28T07:35:45;14.00;;;6.45;;
53835;SDS011;39737;43.334;21.936;2023-05-28T07:38:32;17.63;;;7.78;;
53835;SDS011;39737;43.334;21.936;2023-05-28T07:41:19;14.15;;;6.38;;
53835;SDS011;39737;43.334;21.936;2023-05-28T07:44:14;12.02;;;6.93;;
53835;SDS011;39737;43.334;21.936;2023-05-28T07:47:03;12.98;;;7.13;;
53835;SDS011;39737;43.334;21.936;2023-05-28T07:50:19;14.00;;;7.72;;
53835;SDS011;39737;43.334;21.936;2023-05-28T07:53:17;11.63;;;7.10;;
53835;SDS011;39737;43.334;21.936;2023-05-28T07:56:06;15.82;;;7.97;;
53835;SDS011;39737;43.334;21.936;2023-05-28T07:58:53;14.55;;;7.45;;
53835;SDS011;39737;43.334;21.936;2023-05-28T08:01:41;17.48;;;7.57;;
53835;SDS011;39737;43.334;21.936;2023-05-28T08:04:27;12.20;;;6.72;;
53835;SDS011;39737;43.334;21.936;2023-05-28T08:07:14;14.05;;;6.95;;
53835;SDS011;39737;43.334;21.936;2023-05-28T08:10:02;11.32;;;6.88;;
53835;SDS011;39737;43.334;21.936;2023-05-28T08:12:48;13.52;;;7.05;;
53835;SDS011;39737;43.334;21.936;2023-05-28T08:15:35;11.77;;;6.85;;
53835;SDS011;39737;43.334;21.936;2023-05-28T08:18:24;13.45;;;6.53;;
53835;SDS011;39737;43.334;21.936;2023-05-28T08:21:11;15.13;;;7.28;;
53835;SDS011;39737;43.334;21.936;2023-05-28T08:24:00;12.35;;;6.45;;
53835;SDS011;39737;43.334;21.936;2023-05-28T08:26:50;14.18;;;6.40;;
53835;SDS011;39737;43.334;21.936;2023-05-28T08:29:38;15.02;;;7.78;;
53835;SDS011;39737;43.334;21.936;2023-05-28T08:32:24;10.32;;;6.13;;
53835;SDS011;39737;43.334;21.936;2023-05-28T08:35:11;13.05;;;5.93;;
53835;SDS011;39737;43.334;21.936;2023-05-28T08:37:58;13.00;;;6.20;;
53835;SDS011;39737;43.334;21.936;2023-05-28T08:40:58;11.07;;;5.93;;
53835;SDS011;39737;43.334;21.936;2023-05-28T08:43:46;11.90;;;6.30;;
53835;SDS011;39737;43.334;21.936;2023-05-28T08:46:33;11.23;;;4.95;;
53835;SDS011;39737;43.334;21.936;2023-05-28T08:49:47;13.55;;;5.93;;
53835;SDS011;39737;43.334;21.936;2023-05-28T08:52:36;11.77;;;5.43;;
53835;SDS011;39737;43.334;21.936;2023-05-28T08:55:23;9.80;;;5.20;;
53835;SDS011;39737;43.334;21.936;2023-05-28T08:58:21;10.13;;;5.95;;
53835;SDS011;39737;43.334;21.936;2023-05-28T09:01:09;10.57;;;6.22;;
53835;SDS011;39737;43.334;21.936;2023-05-28T09:03:59;9.43;;;5.78;;
53835;SDS011;39737;43.334;21.936;2023-05-28T09:06:53;8.77;;;5.13;;
53835;SDS011;39737;43.334;21.936;2023-05-28T09:09:48;12.65;;;6.45;;
53835;SDS011;39737;43.334;21.936;2023-05-28T09:12:35;9.48;;;5.43;;
53835;SDS011;39737;43.334;21.936;2023-05-28T09:15:23;12.27;;;5.28;;
53835;SDS011;39737;43.334;21.936;2023-05-28T09:18:10;10.18;;;5.80;;
53835;SDS011;39737;43.334;21.936;2023-05-28T09:21:00;14.77;;;6.35;;
53835;SDS011;39737;43.334;21.936;2023-05-28T09:23:51;13.25;;;6.40;;
53835;SDS011;39737;43.334;21.936;2023-05-28T09:26:46;9.13;;;5.00;;
53835;SDS011;39737;43.334;21.936;2023-05-28T09:29:44;8.65;;;5.50;;
53835;SDS011;39737;43.334;21.936;2023-05-28T09:32:30;8.07;;;5.15;;
53835;SDS011;39737;43.334;21.936;2023-05-28T09:35:16;10.65;;;5.82;;
53835;SDS011;39737;43.334;21.936;2023-05-28T09:38:04;11.13;;;6.13;;
53835;SDS011;39737;43.334;21.936;2023-05-28T09:40:55;11.70;;;5.95;;
53835;SDS011;39737;43.334;21.936;2023-05-28T09:43:41;11.20;;;5.18;;
53835;SDS011;39737;43.334;21.936;2023-05-28T09:46:34;13.27;;;6.43;;
53835;SDS011;39737;43.334;21.936;2023-05-28T09:49:21;11.82;;;5.82;;
53835;SDS011;39737;43.334;21.936;2023-05-28T09:52:07;12.57;;;6.32;;
53835;SDS011;39737;43.334;21.936;2023-05-28T09:54:54;9.82;;;5.28;;
53835;SDS011;39737;43.334;21.936;2023-05-28T09:57:45;10.75;;;5.93;;
53835;SDS011;39737;43.334;21.936;2023-05-28T10:00:38;12.85;;;6.13;;
53835;SDS011;39737;43.334;21.936;2023-05-28T10:03:44;11.95;;;5.90;;
53835;SDS011;39737;43.334;21.936;2023-05-28T10:09:50;11.57;;;6.07;;
53835;SDS011;39737;43.334;21.936;2023-05-28T10:12:39;11.52;;;6.68;;
53835;SDS011;39737;43.334;21.936;2023-05-28T10:15:26;11.52;;;6.03;;
53835;SDS011;39737;43.334;21.936;2023-05-28T10:18:12;12.32;;;6.10;;
53835;SDS011;39737;43.334;21.936;2023-05-28T10:21:02;10.13;;;5.30;;
53835;SDS011;39737;43.334;21.936;2023-05-28T10:23:49;9.25;;;5.57;;
53835;SDS011;39737;43.334;21.936;2023-05-28T10:26:36;9.23;;;4.60;;
53835;SDS011;39737;43.334;21.936;2023-05-28T10:29:22;12.77;;;5.25;;
53835;SDS011;39737;43.334;21.936;2023-05-28T10:32:09;9.32;;;5.20;;
53835;SDS011;39737;43.334;21.936;2023-05-28T10:35:00;8.98;;;4.95;;
53835;SDS011;39737;43.334;21.936;2023-05-28T10:37:47;8.02;;;5.00;;
53835;SDS011;39737;43.334;21.936;2023-05-28T10:40:34;9.55;;;5.38;;
53835;SDS011;39737;43.334;21.936;2023-05-28T10:43:40;11.18;;;6.35;;
53835;SDS011;39737;43.334;21.936;2023-05-28T10:46:35;15.35;;;7.63;;
53835;SDS011;39737;43.334;21.936;2023-05-28T10:49:21;9.40;;;6.13;;
53835;SDS011;39737;43.334;21.936;2023-05-28T10:52:10;12.23;;;5.78;;
53835;SDS011;39737;43.334;21.936;2023-05-28T10:55:07;9.88;;;5.15;;
53835;SDS011;39737;43.334;21.936;2023-05-28T10:58:06;8.45;;;4.80;;
53835;SDS011;39737;43.334;21.936;2023-05-28T11:01:27;13.13;;;5.40;;
53835;SDS011;39737;43.334;21.936;2023-05-28T11:04:09;9.10;;;5.60;;
53835;SDS011;39737;43.334;21.936;2023-05-28T11:06:56;9.68;;;5.00;;
53835;SDS011;39737;43.334;21.936;2023-05-28T11:09:42;8.65;;;5.50;;
53835;SDS011;39737;43.334;21.936;2023-05-28T11:12:37;9.07;;;5.28;;
53835;SDS011;39737;43.334;21.936;2023-05-28T11:15:26;10.75;;;5.05;;
53835;SDS011;39737;43.334;21.936;2023-05-28T11:18:13;8.63;;;5.50;;
53835;SDS011;39737;43.334;21.936;2023-05-28T11:21:06;9.18;;;6.25;;
53835;SDS011;39737;43.334;21.936;2023-05-28T11:24:03;13.75;;;5.07;;
53835;SDS011;39737;43.334;21.936;2023-05-28T11:26:53;12.45;;;6.07;;
53835;SDS011;39737;43.334;21.936;2023-05-28T11:29:44;8.98;;;4.70;;
53835;SDS011;39737;43.334;21.936;2023-05-28T11:32:31;11.00;;;5.95;;
53835;SDS011;39737;43.334;21.936;2023-05-28T11:35:44;8.82;;;5.45;;
53835;SDS011;39737;43.334;21.936;2023-05-28T11:38:27;9.65;;;5.32;;
53835;SDS011;39737;43.334;21.936;2023-05-28T11:41:14;10.15;;;5.75;;
53835;SDS011;39737;43.334;21.936;2023-05-28T11:44:01;9.15;;;5.88;;
53835;SDS011;39737;43.334;21.936;2023-05-28T11:46:55;7.13;;;4.70;;
53835;SDS011;39737;43.334;21.936;2023-05-28T11:49:46;10.02;;;5.60;;
53835;SDS011;39737;43.334;21.936;2023-05-28T11:52:36;14.15;;;6.63;;
53835;SDS011;39737;43.334;21.936;2023-05-28T11:55:23;11.50;;;6.20;;
53835;SDS011;39737;43.334;21.936;2023-05-28T11:58:12;8.27;;;5.28;;
53835;SDS011;39737;43.334;21.936;2023-05-28T12:00:58;8.40;;;4.75;;
53835;SDS011;39737;43.334;21.936;2023-05-28T12:03:46;8.75;;;4.13;;
53835;SDS011;39737;43.334;21.936;2023-05-28T12:06:33;7.07;;;4.05;;
53835;SDS011;39737;43.334;21.936;2023-05-28T12:09:26;6.97;;;4.63;;
53835;SDS011;39737;43.334;21.936;2023-05-28T12:12:12;7.60;;;3.78;;
53835;SDS011;39737;43.334;21.936;2023-05-28T12:15:00;8.95;;;4.53;;
53835;SDS011;39737;43.334;21.936;2023-05-28T12:17:51;9.40;;;4.45;;
53835;SDS011;39737;43.334;21.936;2023-05-28T12:20:41;7.95;;;4.68;;
53835;SDS011;39737;43.334;21.936;2023-05-28T12:23:28;6.55;;;3.83;;
53835;SDS011;39737;43.334;21.936;2023-05-28T12:26:15;8.45;;;4.60;;
53835;SDS011;39737;43.334;21.936;2023-05-28T12:29:02;7.93;;;4.65;;
53835;SDS011;39737;43.334;21.936;2023-05-28T12:31:56;7.35;;;4.18;;
53835;SDS011;39737;43.334;21.936;2023-05-28T12:34:42;8.20;;;5.40;;
53835;SDS011;39737;43.334;21.936;2023-05-28T12:37:29;7.00;;;4.80;;
53835;SDS011;39737;43.334;21.936;2023-05-28T12:40:18;10.52;;;5.75;;
53835;SDS011;39737;43.334;21.936;2023-05-28T12:43:06;8.48;;;5.22;;
53835;SDS011;39737;43.334;21.936;2023-05-28T12:45:52;9.05;;;3.63;;
53835;SDS011;39737;43.334;21.936;2023-05-28T12:48:38;5.93;;;3.65;;
53835;SDS011;39737;43.334;21.936;2023-05-28T12:51:26;4.55;;;2.65;;
53835;SDS011;39737;43.334;21.936;2023-05-28T12:54:32;5.90;;;3.45;;
53835;SDS011;39737;43.334;21.936;2023-05-28T12:57:19;4.65;;;2.78;;
53835;SDS011;39737;43.334;21.936;2023-05-28T13:00:07;4.55;;;3.55;;
53835;SDS011;39737;43.334;21.936;2023-05-28T13:02:57;6.60;;;3.45;;
53835;SDS011;39737;43.334;21.936;2023-05-28T13:05:43;5.97;;;3.20;;
53835;SDS011;39737;43.334;21.936;2023-05-28T13:08:32;5.97;;;2.90;;
53835;SDS011;39737;43.334;21.936;2023-05-28T13:11:20;12.60;;;3.97;;
53835;SDS011;39737;43.334;21.936;2023-05-28T13:14:08;6.03;;;3.53;;
53835;SDS011;39737;43.334;21.936;2023-05-28T13:16:55;12.13;;;3.92;;
53835;SDS011;39737;43.334;21.936;2023-05-28T13:19:41;9.25;;;3.97;;
53835;SDS011;39737;43.334;21.936;2023-05-28T13:22:27;14.90;;;5.32;;
53835;SDS011;39737;43.334;21.936;2023-05-28T13:25:14;11.25;;;3.85;;
53835;SDS011;39737;43.334;21.936;2023-05-28T13:28:00;13.38;;;6.00;;
53835;SDS011;39737;43.334;21.936;2023-05-28T13:30:47;9.88;;;3.55;;
53835;SDS011;39737;43.334;21.936;2023-05-28T13:33:33;2.88;;;2.38;;
53835;SDS011;39737;43.334;21.936;2023-05-28T13:36:22;6.20;;;3.25;;
53835;SDS011;39737;43.334;21.936;2023-05-28T13:39:10;4.00;;;2.58;;
53835;SDS011;39737;43.334;21.936;2023-05-28T13:42:00;3.22;;;1.70;;
53835;SDS011;39737;43.334;21.936;2023-05-28T13:44:49;4.18;;;2.38;;
53835;SDS011;39737;43.334;21.936;2023-05-28T13:47:36;5.85;;;2.40;;
53835;SDS011;39737;43.334;21.936;2023-05-28T13:50:23;4.55;;;2.63;;
53835;SDS011;39737;43.334;21.936;2023-05-28T13:53:10;2.47;;;2.03;;
53835;SDS011;39737;43.334;21.936;2023-05-28T13:55:56;3.08;;;2.33;;
53835;SDS011;39737;43.334;21.936;2023-05-28T13:58:44;2.42;;;2.00;;
53835;SDS011;39737;43.334;21.936;2023-05-28T14:01:30;7.40;;;2.10;;
53835;SDS011;39737;43.334;21.936;2023-05-28T14:04:17;3.40;;;2.05;;
53835;SDS011;39737;43.334;21.936;2023-05-28T14:07:08;9.50;;;3.72;;
53835;SDS011;39737;43.334;21.936;2023-05-28T14:09:54;4.53;;;2.50;;
53835;SDS011;39737;43.334;21.936;2023-05-28T14:12:40;6.32;;;3.53;;
53835;SDS011;39737;43.334;21.936;2023-05-28T14:15:27;7.05;;;3.28;;
53835;SDS011;39737;43.334;21.936;2023-05-28T14:18:13;6.00;;;3.95;;
53835;SDS011;39737;43.334;21.936;2023-05-28T14:21:00;6.45;;;3.05;;
53835;SDS011;39737;43.334;21.936;2023-05-28T14:23:47;4.85;;;3.25;;
53835;SDS011;39737;43.334;21.936;2023-05-28T14:26:33;7.03;;;4.03;;
53835;SDS011;39737;43.334;21.936;2023-05-28T14:29:19;8.48;;;5.22;;
53835;SDS011;39737;43.334;21.936;2023-05-28T14:32:06;6.50;;;3.80;;
53835;SDS011;39737;43.334;21.936;2023-05-28T14:34:52;8.68;;;4.38;;
53835;SDS011;39737;43.334;21.936;2023-05-28T14:37:38;7.55;;;3.92;;
53835;SDS011;39737;43.334;21.936;2023-05-28T14:40:24;5.25;;;3.50;;
53835;SDS011;39737;43.334;21.936;2023-05-28T14:43:15;10.00;;;4.63;;
53835;SDS011;39737;43.334;21.936;2023-05-28T14:46:01;5.30;;;3.00;;
53835;SDS011;39737;43.334;21.936;2023-05-28T14:48:48;4.93;;;2.45;;
53835;SDS011;39737;43.334;21.936;2023-05-28T14:51:34;3.53;;;1.60;;
53835;SDS011;39737;43.334;21.936;2023-05-28T14:54:25;4.55;;;1.35;;
53835;SDS011;39737;43.334;21.936;2023-05-28T14:57:11;5.13;;;1.42;;
53835;SDS011;39737;43.334;21.936;2023-05-28T15:00:00;4.82;;;1.77;;
53835;SDS011;39737;43.334;21.936;2023-05-28T15:02:53;1.75;;;1.63;;
53835;SDS011;39737;43.334;21.936;2023-05-28T15:05:42;3.75;;;1.75;;
53835;SDS011;39737;43.334;21.936;2023-05-28T15:08:29;6.18;;;1.58;;
53835;SDS011;39737;43.334;21.936;2023-05-28T15:11:16;3.05;;;1.70;;
53835;SDS011;39737;43.334;21.936;2023-05-28T15:14:02;12.20;;;1.98;;
53835;SDS011;39737;43.334;21.936;2023-05-28T15:16:48;3.70;;;1.67;;
53835;SDS011;39737;43.334;21.936;2023-05-28T15:19:34;3.25;;;2.30;;
53835;SDS011;39737;43.334;21.936;2023-05-28T15:22:22;4.63;;;2.53;;
53835;SDS011;39737;43.334;21.936;2023-05-28T15:25:09;3.30;;;2.25;;
53835;SDS011;39737;43.334;21.936;2023-05-28T15:27:55;5.68;;;2.10;;
53835;SDS011;39737;43.334;21.936;2023-05-28T15:30:42;12.15;;;2.08;;
53835;SDS011;39737;43.334;21.936;2023-05-28T15:33:32;3.30;;;1.67;;
53835;SDS011;39737;43.334;21.936;2023-05-28T15:36:19;5.70;;;2.15;;
53835;SDS011;39737;43.334;21.936;2023-05-28T15:39:06;3.88;;;2.05;;
53835;SDS011;39737;43.334;21.936;2023-05-28T15:41:52;6.95;;;2.03;;
53835;SDS011;39737;43.334;21.936;2023-05-28T15:44:40;2.88;;;1.73;;
53835;SDS011;39737;43.334;21.936;2023-05-28T15:47:26;4.00;;;2.08;;
53835;SDS011;39737;43.334;21.936;2023-05-28T15:50:13;3.58;;;2.15;;
53835;SDS011;39737;43.334;21.936;2023-05-28T15:52:59;2.47;;;1.90;;
53835;SDS011;39737;43.334;21.936;2023-05-28T15:55:46;3.72;;;2.30;;
53835;SDS011;39737;43.334;21.936;2023-05-28T15:58:47;7.85;;;2.45;;
53835;SDS011;39737;43.334;21.936;2023-05-28T16:01:42;2.50;;;1.42;;
53835;SDS011;39737;43.334;21.936;2023-05-28T16:07:20;4.93;;;2.20;;
53835;SDS011;39737;43.334;21.936;2023-05-28T16:10:13;6.28;;;3.70;;
53835;SDS011;39737;43.334;21.936;2023-05-28T16:13:00;5.38;;;2.25;;
53835;SDS011;39737;43.334;21.936;2023-05-28T16:16:04;3.10;;;2.53;;
53835;SDS011;39737;43.334;21.936;2023-05-28T16:18:54;5.32;;;2.75;;
53835;SDS011;39737;43.334;21.936;2023-05-28T16:21:40;3.92;;;2.08;;
53835;SDS011;39737;43.334;21.936;2023-05-28T16:24:28;6.72;;;2.95;;
53835;SDS011;39737;43.334;21.936;2023-05-28T16:27:14;7.32;;;3.60;;
53835;SDS011;39737;43.334;21.936;2023-05-28T16:30:00;8.88;;;3.97;;
53835;SDS011;39737;43.334;21.936;2023-05-28T16:32:48;8.90;;;4.35;;
53835;SDS011;39737;43.334;21.936;2023-05-28T16:35:35;6.65;;;4.03;;
53835;SDS011;39737;43.334;21.936;2023-05-28T16:38:22;5.35;;;2.83;;
53835;SDS011;39737;43.334;21.936;2023-05-28T16:41:09;5.28;;;3.05;;
53835;SDS011;39737;43.334;21.936;2023-05-28T16:43:55;7.05;;;2.45;;